createdAt,value
2022-10-03T00:00:16.448Z,6.17
2022-10-03T00:03:21.967Z,8.77
2022-10-03T00:06:07.086Z,9.10
2022-10-03T00:09:13.352Z,8.73
2022-10-03T00:11:53.892Z,8.70
2022-10-03T00:14:30.937Z,7.43
2022-10-03T00:17:06.355Z,7.90
2022-10-03T00:19:43.702Z,7.60
2022-10-03T00:22:24.143Z,8.00
2022-10-03T00:24:58.945Z,9.43
2022-10-03T00:27:34.816Z,11.00
2022-10-03T00:30:22.244Z,8.80
2022-10-03T00:33:17.053Z,10.37
2022-10-03T00:36:04.987Z,9.57
2022-10-03T00:39:00.554Z,10.23
2022-10-03T00:42:08.300Z,15.50
2022-10-03T00:45:33.985Z,12.83
2022-10-03T00:48:35.738Z,10.20
2022-10-03T00:51:27.114Z,8.60
2022-10-03T00:54:08.505Z,11.67
2022-10-03T00:56:59.328Z,14.17
2022-10-03T00:59:36.006Z,13.60
2022-10-03T01:02:27.474Z,11.63
2022-10-03T01:04:59.247Z,12.47
2022-10-03T01:07:33.922Z,9.60
2022-10-03T01:10:20.504Z,11.13
2022-10-03T01:13:04.490Z,10.73
2022-10-03T01:15:58.439Z,13.43
2022-10-03T01:18:41.784Z,11.13
2022-10-03T01:21:18.005Z,15.87
2022-10-03T01:24:21.235Z,11.27
2022-10-03T01:27:00.334Z,14.07
2022-10-03T01:30:00.355Z,12.73
2022-10-03T01:32:35.061Z,15.10
2022-10-03T01:35:16.737Z,11.43
2022-10-03T01:37:51.605Z,13.23
2022-10-03T01:40:30.246Z,16.90
2022-10-03T01:43:11.951Z,14.00
2022-10-03T01:46:00.771Z,16.33
2022-10-03T01:48:34.504Z,18.20
2022-10-03T01:51:07.057Z,13.40
2022-10-03T01:53:44.943Z,14.10
2022-10-03T01:56:22.561Z,16.70
2022-10-03T01:58:57.054Z,18.83
2022-10-03T02:01:36.697Z,15.27
2022-10-03T02:04:14.298Z,18.70
2022-10-03T02:06:47.749Z,16.10
2022-10-03T02:09:22.334Z,17.77
2022-10-03T02:12:03.998Z,16.17
2022-10-03T02:14:35.364Z,13.70
2022-10-03T02:17:11.181Z,16.47
2022-10-03T02:19:48.552Z,20.57
2022-10-03T02:22:31.205Z,16.37
2022-10-03T02:25:14.338Z,15.33
2022-10-03T02:28:30.734Z,16.87
2022-10-03T02:31:45.518Z,17.23
2022-10-03T02:34:42.023Z,17.53
2022-10-03T02:37:52.397Z,14.93
2022-10-03T02:41:05.635Z,15.57
2022-10-03T02:44:04.445Z,13.50
2022-10-03T02:47:07.460Z,14.53
2022-10-03T02:50:14.886Z,13.90
2022-10-03T02:53:16.028Z,17.13
2022-10-03T02:56:08.285Z,19.43
2022-10-03T02:59:26.647Z,14.33
2022-10-03T03:02:24.959Z,13.90
2022-10-03T03:05:29.763Z,11.93
2022-10-03T03:08:24.551Z,15.03
2022-10-03T03:11:22.419Z,12.67
2022-10-03T03:14:19.069Z,15.03
2022-10-03T03:17:13.454Z,12.43
2022-10-03T03:20:12.505Z,15.47
2022-10-03T03:22:48.175Z,14.50
2022-10-03T03:25:42.409Z,15.10
2022-10-03T03:28:24.487Z,24.30
2022-10-03T03:31:00.353Z,17.27
2022-10-03T03:33:40.253Z,16.00
2022-10-03T03:36:17.579Z,16.80
2022-10-03T03:39:04.584Z,16.17
2022-10-03T03:41:46.275Z,14.87
2022-10-03T03:44:46.206Z,20.27
2022-10-03T03:47:31.676Z,17.60
2022-10-03T03:50:24.013Z,19.93
2022-10-03T03:53:08.422Z,18.17
2022-10-03T03:55:56.549Z,18.20
2022-10-03T03:58:34.412Z,19.90
2022-10-03T04:01:21.651Z,21.13
2022-10-03T04:04:02.248Z,21.73
2022-10-03T04:06:46.419Z,19.70
2022-10-03T04:09:25.611Z,19.80
2022-10-03T04:12:09.756Z,17.83
2022-10-03T04:15:01.034Z,21.47
2022-10-03T04:17:56.324Z,20.50
2022-10-03T04:20:40.773Z,20.83
2022-10-03T04:23:29.176Z,17.47
2022-10-03T04:26:11.015Z,18.97
2022-10-03T04:28:53.450Z,17.70
2022-10-03T04:31:35.316Z,18.90
2022-10-03T04:34:22.715Z,16.83
2022-10-03T04:37:14.467Z,16.60
2022-10-03T04:39:50.551Z,19.60
2022-10-03T04:42:27.233Z,17.53
2022-10-03T04:45:11.967Z,18.00
2022-10-03T04:47:46.746Z,21.13
2022-10-03T04:50:34.383Z,20.10
2022-10-03T04:53:20.328Z,20.07
2022-10-03T04:55:55.784Z,20.67
2022-10-03T04:58:35.540Z,18.77
2022-10-03T05:01:17.366Z,16.23
2022-10-03T05:03:55.539Z,17.67
2022-10-03T05:06:39.360Z,16.63
2022-10-03T05:09:18.326Z,13.27
2022-10-03T05:11:50.892Z,16.87
2022-10-03T05:14:28.401Z,20.27
2022-10-03T05:17:04.886Z,17.37
2022-10-03T05:19:49.418Z,13.10
2022-10-03T05:22:24.000Z,12.77
2022-10-03T05:25:02.615Z,16.37
2022-10-03T05:27:42.230Z,18.50
2022-10-03T05:30:18.757Z,14.97
2022-10-03T05:32:51.487Z,14.10
2022-10-03T05:35:32.883Z,19.10
2022-10-03T05:38:30.853Z,13.37
2022-10-03T05:41:07.634Z,18.37
2022-10-03T05:43:53.063Z,14.43
2022-10-03T05:46:32.466Z,15.63
2022-10-03T05:49:21.172Z,17.10
2022-10-03T05:52:06.483Z,18.53
2022-10-03T05:54:49.414Z,15.10
2022-10-03T05:57:43.920Z,16.47
2022-10-03T06:00:20.992Z,14.37
2022-10-03T06:03:30.615Z,15.17
2022-10-03T06:06:21.035Z,13.13
2022-10-03T06:09:34.466Z,12.53
2022-10-03T06:12:10.095Z,13.87
2022-10-03T06:15:07.777Z,14.63
2022-10-03T06:18:02.989Z,15.90
2022-10-03T06:21:08.055Z,13.80
2022-10-03T06:24:11.582Z,12.93
2022-10-03T06:27:12.365Z,14.50
2022-10-03T06:30:13.865Z,13.70
2022-10-03T06:33:40.305Z,15.07
2022-10-03T06:36:27.532Z,11.10
2022-10-03T06:39:44.267Z,11.03
2022-10-03T06:42:47.791Z,13.40
2022-10-03T06:45:55.928Z,16.40
2022-10-03T06:48:52.800Z,12.17
2022-10-03T06:51:46.311Z,12.63
2022-10-03T06:54:44.416Z,13.73
2022-10-03T06:57:35.722Z,15.53
2022-10-03T07:00:15.919Z,14.60
2022-10-03T07:03:32.927Z,11.20
2022-10-03T07:06:23.697Z,12.10
2022-10-03T07:12:54.767Z,11.30
2022-10-03T07:16:08.658Z,12.67
2022-10-03T07:26:12.957Z,11.10
2022-10-03T07:32:52.355Z,13.60
2022-10-03T07:36:00.476Z,9.43
2022-10-03T07:39:05.224Z,13.27
2022-10-03T07:42:26.645Z,13.00
2022-10-03T07:45:30.946Z,12.37
2022-10-03T07:48:31.211Z,9.50
2022-10-03T07:51:16.619Z,12.00
2022-10-03T07:54:18.125Z,13.03
2022-10-03T07:57:08.340Z,13.13
2022-10-03T08:00:22.862Z,12.90
2022-10-03T08:03:49.939Z,14.03
2022-10-03T08:21:12.126Z,11.10
2022-10-03T08:24:23.628Z,10.97
2022-10-03T08:27:29.563Z,13.03
2022-10-03T08:30:25.620Z,16.67
2022-10-03T08:33:00.996Z,13.20
2022-10-03T08:36:12.515Z,15.43
2022-10-03T08:46:09.522Z,11.90
2022-10-03T08:59:17.759Z,15.03
2022-10-03T09:02:05.752Z,9.20
2022-10-03T10:56:53.868Z,6.77
2022-10-03T11:25:44.026Z,5.77
2022-10-03T12:25:59.891Z,7.30
2022-10-03T13:09:42.832Z,7.83
2022-10-03T13:16:05.084Z,6.07
2022-10-03T13:18:49.365Z,4.13
2022-10-03T13:24:14.885Z,4.37
2022-10-03T13:27:32.315Z,5.13
2022-10-03T13:30:29.627Z,5.53
2022-10-03T13:33:14.897Z,7.93
2022-10-03T13:39:30.833Z,4.63
2022-10-03T13:42:13.049Z,8.23
2022-10-03T13:47:47.181Z,8.83
2022-10-03T13:50:20.135Z,11.77
2022-10-03T13:55:58.182Z,3.63
2022-10-03T13:58:38.020Z,7.73
2022-10-03T14:01:34.165Z,6.53
2022-10-03T14:04:39.355Z,7.03
2022-10-03T14:07:19.035Z,7.93
2022-10-03T14:10:22.033Z,7.17
2022-10-03T14:13:20.167Z,5.27
2022-10-03T14:15:53.821Z,4.47
2022-10-03T14:18:44.909Z,3.77
2022-10-03T14:24:17.991Z,9.73
2022-10-03T14:26:59.767Z,4.53
2022-10-03T14:29:38.600Z,3.93
2022-10-03T14:32:42.346Z,7.20
2022-10-03T14:35:22.964Z,5.67
2022-10-03T14:37:58.365Z,4.23
2022-10-03T14:40:38.553Z,5.33
2022-10-03T14:43:27.018Z,6.27
2022-10-03T14:45:59.343Z,7.17
2022-10-03T14:48:58.900Z,6.73
2022-10-03T14:51:33.758Z,5.77
2022-10-03T14:54:09.482Z,5.83
2022-10-03T14:59:58.145Z,4.60
2022-10-03T15:02:32.607Z,5.17
2022-10-03T15:05:09.992Z,6.93
2022-10-03T15:07:42.302Z,4.93
2022-10-03T15:10:15.939Z,4.23
2022-10-03T15:15:39.347Z,6.97
2022-10-03T15:18:24.827Z,8.47
2022-10-03T15:20:58.919Z,4.07
2022-10-03T15:23:34.346Z,3.90
2022-10-03T15:26:07.218Z,3.43
2022-10-03T15:31:40.031Z,3.67
2022-10-03T15:34:25.677Z,3.90
2022-10-03T15:37:10.895Z,3.00
2022-10-03T15:39:49.947Z,3.00
2022-10-03T15:42:36.751Z,7.90
2022-10-03T15:45:19.033Z,5.50
2022-10-03T15:48:04.119Z,5.53
2022-10-03T15:50:41.789Z,5.13
2022-10-03T15:53:37.170Z,3.80
2022-10-03T15:56:15.452Z,6.50
2022-10-03T15:58:55.186Z,4.20
2022-10-03T16:01:58.956Z,3.97
2022-10-03T16:04:43.191Z,3.63
2022-10-03T16:07:15.429Z,4.33
2022-10-03T16:10:02.769Z,2.70
2022-10-03T16:13:00.988Z,3.80
2022-10-03T16:16:09.760Z,4.13
2022-10-03T16:18:52.822Z,7.53
2022-10-03T16:24:31.057Z,3.60
2022-10-03T16:30:41.385Z,4.40
2022-10-03T16:39:51.066Z,2.40
2022-10-03T16:48:44.008Z,5.57
2022-10-03T17:19:07.082Z,3.80
2022-10-03T17:21:42.117Z,6.63
2022-10-03T17:50:19.963Z,10.67
2022-10-03T17:56:35.585Z,8.77
2022-10-03T18:12:51.488Z,13.30
2022-10-03T18:15:27.689Z,11.57
2022-10-03T18:18:34.301Z,11.57
2022-10-03T18:27:46.372Z,9.20
2022-10-03T18:30:21.955Z,12.37
2022-10-03T18:33:00.039Z,6.80
2022-10-03T18:35:34.252Z,8.93
2022-10-03T18:41:32.118Z,7.87
2022-10-03T18:47:31.832Z,10.67
2022-10-03T18:50:27.453Z,24.97
2022-10-03T19:25:28.631Z,7.93
2022-10-03T19:31:03.794Z,8.70
2022-10-03T19:33:53.933Z,8.63
2022-10-03T19:42:09.637Z,8.07
2022-10-03T19:44:40.517Z,6.40
2022-10-03T19:47:17.397Z,7.90
2022-10-03T19:49:56.025Z,8.97
2022-10-03T19:52:29.947Z,4.87
2022-10-03T19:55:16.231Z,7.73
2022-10-03T19:57:48.047Z,13.67
2022-10-03T20:00:37.648Z,14.70
2022-10-03T20:03:10.480Z,12.17
2022-10-03T20:05:45.022Z,14.07
2022-10-03T20:08:23.689Z,10.27
2022-10-03T20:11:05.665Z,9.63
2022-10-03T20:13:34.350Z,8.23
2022-10-03T20:16:05.517Z,13.90
2022-10-03T20:18:34.666Z,11.00
2022-10-03T20:21:04.287Z,12.80
2022-10-03T20:23:35.880Z,14.43
2022-10-03T20:26:10.437Z,9.10
2022-10-03T20:28:58.458Z,11.07
2022-10-03T20:31:29.180Z,12.10
2022-10-03T20:34:00.501Z,8.93
2022-10-03T20:36:31.022Z,11.53
2022-10-03T20:39:13.012Z,12.77
2022-10-03T20:41:53.873Z,10.27
2022-10-03T20:44:39.380Z,9.93
2022-10-03T20:47:13.953Z,11.80
2022-10-03T20:49:48.310Z,11.20
2022-10-03T20:52:20.081Z,11.93
2022-10-03T20:54:52.646Z,8.07
2022-10-03T20:57:25.511Z,8.53
2022-10-03T21:00:17.833Z,8.80
2022-10-03T21:02:52.207Z,7.77
2022-10-03T21:05:25.162Z,9.70
2022-10-03T21:07:55.789Z,8.50
2022-10-03T21:10:30.209Z,14.93
2022-10-03T21:13:02.453Z,12.60
2022-10-03T21:15:42.268Z,8.30
2022-10-03T21:18:20.851Z,12.37
2022-10-03T21:20:49.640Z,8.07
2022-10-03T21:23:24.561Z,8.57
2022-10-03T21:25:58.870Z,7.90
2022-10-03T21:28:29.356Z,9.10
2022-10-03T21:31:29.041Z,10.57
2022-10-03T21:34:02.640Z,15.67
2022-10-03T21:36:39.769Z,10.83
2022-10-03T21:39:18.572Z,12.83
2022-10-03T21:41:59.578Z,8.07
2022-10-03T21:44:53.600Z,12.43
2022-10-03T21:47:34.655Z,11.23
2022-10-03T21:50:07.216Z,11.77
2022-10-03T21:52:52.734Z,12.10
2022-10-03T21:55:51.868Z,13.27
2022-10-03T21:58:45.332Z,16.17
2022-10-03T22:01:24.887Z,15.27
2022-10-03T22:03:55.994Z,12.87
2022-10-03T22:06:26.069Z,11.77
2022-10-03T22:08:54.756Z,13.00
2022-10-03T22:11:35.623Z,14.93
2022-10-03T22:14:16.670Z,14.53
2022-10-03T22:16:54.462Z,12.63
2022-10-03T22:19:32.991Z,10.37
2022-10-03T22:22:13.630Z,10.00
2022-10-03T22:24:50.929Z,11.57
2022-10-03T22:27:25.160Z,12.17
2022-10-03T22:30:02.464Z,11.20
2022-10-03T22:32:38.233Z,9.47
2022-10-03T22:35:23.778Z,11.90
2022-10-03T22:37:52.497Z,9.40
2022-10-03T22:40:21.062Z,14.60
2022-10-03T22:42:53.844Z,13.70
2022-10-03T22:45:24.792Z,10.30
2022-10-03T22:47:56.860Z,12.30
2022-10-03T22:50:30.181Z,9.70
2022-10-03T22:53:00.759Z,10.20
2022-10-03T22:55:29.691Z,9.50
2022-10-03T22:58:00.298Z,9.13
2022-10-03T23:00:33.536Z,7.73
2022-10-03T23:03:07.831Z,8.93
2022-10-03T23:05:56.587Z,11.80
2022-10-03T23:08:31.025Z,11.60
2022-10-03T23:11:04.136Z,8.07
2022-10-03T23:13:38.753Z,11.47
2022-10-03T23:16:18.537Z,9.77
2022-10-03T23:19:08.499Z,7.17
2022-10-03T23:21:46.272Z,9.40
2022-10-03T23:24:27.444Z,9.60
2022-10-03T23:27:26.750Z,12.40
2022-10-03T23:30:30.546Z,9.53
2022-10-03T23:33:00.644Z,11.13
2022-10-03T23:35:41.759Z,8.73
2022-10-03T23:38:48.374Z,9.80
2022-10-03T23:41:28.813Z,7.97
2022-10-03T23:43:58.937Z,9.13
2022-10-03T23:46:30.795Z,7.83
2022-10-03T23:49:03.475Z,7.63
2022-10-03T23:51:36.013Z,11.03
2022-10-03T23:54:07.454Z,9.67
2022-10-03T23:56:40.241Z,9.57
2022-10-03T23:59:21.326Z,7.67
